Terminal Aerodrome Forecast
Issued by NWS

Current Version | Previous Version | Text Only | Print | Product List | Glossary On
Versions: 1 2 3 4 5 6 7 8 9 10 11 12 13
000 FTUS42 KRAH 251731 TAFINT TAF KINT 251731Z 2518/2618 30005KT P6SM SKC TEMPO 2612/2615 30012G18KT FM261500 30013G20KT P6SM SKC=

USA.gov is the U.S. government's official web portal to all federal, state and local government web resources and services.